createdAt,value
2022-10-07T00:00:11.178Z,11.45
2022-10-07T00:05:12.874Z,11.53
2022-10-07T00:10:14.711Z,11.60
2022-10-07T00:15:16.965Z,11.61
2022-10-07T00:20:18.739Z,11.62
2022-10-07T00:25:21.486Z,11.63
2022-10-07T00:30:23.156Z,11.64
2022-10-07T00:35:24.760Z,11.66
2022-10-07T00:40:26.306Z,11.66
2022-10-07T00:45:28.383Z,11.69
2022-10-07T00:50:30.227Z,11.69
2022-10-07T00:55:32.382Z,11.74
2022-10-07T01:00:34.061Z,11.73
2022-10-07T01:05:35.698Z,11.78
2022-10-07T01:11:16.344Z,11.85
2022-10-07T01:16:48.487Z,11.95
2022-10-07T01:22:23.776Z,11.99
2022-10-07T01:27:27.412Z,12.03
2022-10-07T01:32:37.784Z,12.10
2022-10-07T01:37:44.679Z,12.07
2022-10-07T01:42:48.110Z,12.02
2022-10-07T01:47:50.684Z,12.02
2022-10-07T01:53:20.981Z,12.00
2022-10-07T01:58:53.748Z,11.97
2022-10-07T02:04:14.102Z,11.94
2022-10-07T02:09:30.331Z,11.88
2022-10-07T02:14:46.127Z,11.82
2022-10-07T02:19:56.551Z,11.77
2022-10-07T02:24:59.651Z,11.73
2022-10-07T02:30:11.155Z,11.64
2022-10-07T02:35:18.840Z,11.55
2022-10-07T02:40:25.010Z,11.55
2022-10-07T02:45:36.665Z,11.54
2022-10-07T02:50:42.369Z,11.55
2022-10-07T02:55:45.950Z,11.52
2022-10-07T03:00:53.157Z,11.47
2022-10-07T03:05:56.079Z,11.42
2022-10-07T03:11:01.200Z,11.37
2022-10-07T03:16:05.286Z,11.35
2022-10-07T03:21:08.621Z,11.33
2022-10-07T03:26:13.016Z,11.26
2022-10-07T03:31:15.572Z,11.20
2022-10-07T03:36:29.965Z,11.16
2022-10-07T03:41:31.827Z,11.11
2022-10-07T03:46:35.488Z,11.07
2022-10-07T03:51:37.250Z,11.06
2022-10-07T03:56:41.875Z,11.06
2022-10-07T04:01:43.541Z,11.03
2022-10-07T04:06:45.529Z,11.01
2022-10-07T04:11:49.182Z,10.98
2022-10-07T04:16:50.831Z,10.94
2022-10-07T04:21:52.899Z,10.91
2022-10-07T04:26:54.753Z,10.90
2022-10-07T04:31:58.842Z,10.87
2022-10-07T04:37:01.364Z,10.88
2022-10-07T04:42:04.185Z,10.90
2022-10-07T04:47:07.125Z,10.90
2022-10-07T04:52:11.703Z,10.90
2022-10-07T04:57:15.855Z,10.86
2022-10-07T05:02:19.439Z,10.86
2022-10-07T05:07:21.508Z,10.82
2022-10-07T05:12:25.059Z,10.79
2022-10-07T05:17:26.824Z,10.77
2022-10-07T05:22:28.560Z,10.74
2022-10-07T05:27:30.796Z,10.70
2022-10-07T05:32:35.256Z,10.67
2022-10-07T05:37:37.847Z,10.64
2022-10-07T05:42:39.560Z,10.65
2022-10-07T05:47:42.562Z,10.69
2022-10-07T05:52:45.365Z,10.70
2022-10-07T05:57:53.202Z,10.76
2022-10-07T06:02:55.180Z,10.75
2022-10-07T06:07:56.947Z,10.72
2022-10-07T06:13:08.747Z,10.78
2022-10-07T06:18:12.042Z,10.83
2022-10-07T06:23:13.745Z,10.85
2022-10-07T06:28:17.364Z,10.93
2022-10-07T06:33:19.618Z,10.99
2022-10-07T06:38:21.271Z,11.01
2022-10-07T06:43:23.037Z,11.17
2022-10-07T06:48:32.864Z,11.24
2022-10-07T06:53:34.718Z,11.34
2022-10-07T06:58:36.804Z,11.35
2022-10-07T07:03:40.458Z,11.43
2022-10-07T07:08:44.759Z,11.52
2022-10-07T07:13:47.268Z,11.61
2022-10-07T07:18:57.587Z,11.54
2022-10-07T07:24:01.264Z,11.56
2022-10-07T07:29:06.211Z,11.74
2022-10-07T07:34:16.332Z,11.84
2022-10-07T07:39:20.075Z,11.83
2022-10-07T07:44:34.042Z,11.92
2022-10-07T07:49:37.130Z,12.09
2022-10-07T07:54:41.915Z,12.34
2022-10-07T07:59:43.952Z,12.39
2022-10-07T08:04:48.136Z,12.53
2022-10-07T08:09:54.017Z,12.73
2022-10-07T08:14:55.684Z,13.03
2022-10-07T08:19:57.436Z,13.09
2022-10-07T08:25:00.268Z,13.26
2022-10-07T08:30:06.436Z,13.38
2022-10-07T08:35:08.974Z,13.42
2022-10-07T08:40:15.947Z,13.55
2022-10-07T08:45:29.389Z,13.55
2022-10-07T08:50:45.609Z,13.57
2022-10-07T08:55:47.167Z,13.46
2022-10-07T09:01:22.444Z,13.58
2022-10-07T09:06:55.328Z,13.79
2022-10-07T09:12:01.084Z,13.97
2022-10-07T09:17:17.091Z,14.28
2022-10-07T09:22:41.704Z,14.27
2022-10-07T09:27:43.575Z,14.32
2022-10-07T09:32:47.984Z,14.47
2022-10-07T09:37:55.813Z,14.78
2022-10-07T09:43:01.928Z,14.92
2022-10-07T09:48:17.346Z,14.99
2022-10-07T09:53:25.320Z,15.13
2022-10-07T09:58:26.821Z,15.44
2022-10-07T10:03:36.921Z,15.56
2022-10-07T10:08:42.612Z,15.80
2022-10-07T10:13:44.280Z,15.95
2022-10-07T10:18:55.556Z,15.85
2022-10-07T10:23:59.541Z,16.14
2022-10-07T10:29:18.384Z,16.42
2022-10-07T10:34:42.260Z,16.73
2022-10-07T10:40:09.043Z,16.73
2022-10-07T10:45:53.532Z,17.00
2022-10-07T10:51:05.974Z,17.40
2022-10-07T10:56:18.373Z,17.70
2022-10-07T11:01:36.545Z,17.76
2022-10-07T11:06:42.304Z,17.71
2022-10-07T11:11:44.931Z,17.86
2022-10-07T11:16:52.585Z,18.11
2022-10-07T11:21:57.315Z,18.18
2022-10-07T11:27:10.231Z,18.15
2022-10-07T11:32:22.821Z,18.24
2022-10-07T11:37:33.742Z,18.49
2022-10-07T11:42:44.493Z,18.56
2022-10-07T11:47:56.283Z,18.36
2022-10-07T11:53:05.631Z,18.36
2022-10-07T11:58:32.029Z,18.58
2022-10-07T12:03:33.712Z,18.51
2022-10-07T12:08:38.439Z,18.47
2022-10-07T12:13:51.631Z,18.44
2022-10-07T12:19:19.794Z,18.61
2022-10-07T12:24:26.685Z,18.74
2022-10-07T12:29:32.129Z,18.76
2022-10-07T12:34:39.933Z,18.60
2022-10-07T12:39:41.620Z,18.61
2022-10-07T12:44:52.587Z,18.66
2022-10-07T12:49:59.162Z,18.73
2022-10-07T12:55:14.336Z,18.76
2022-10-07T13:00:20.063Z,18.80
2022-10-07T13:05:59.285Z,18.92
2022-10-07T13:11:22.634Z,18.92
2022-10-07T13:16:45.475Z,18.94
2022-10-07T13:21:51.128Z,18.98
2022-10-07T13:26:52.915Z,18.87
2022-10-07T13:32:13.081Z,18.96
2022-10-07T13:37:32.247Z,19.17
2022-10-07T13:42:35.205Z,19.32
2022-10-07T13:47:37.941Z,19.40
2022-10-07T13:52:40.175Z,19.30
2022-10-07T13:57:44.309Z,19.25
2022-10-07T14:02:46.489Z,19.07
2022-10-07T14:07:56.032Z,18.96
2022-10-07T14:13:04.883Z,18.78
2022-10-07T14:18:09.190Z,18.88
2022-10-07T14:23:35.138Z,18.93
2022-10-07T14:28:38.657Z,18.93
2022-10-07T14:34:20.533Z,18.96
2022-10-07T14:39:24.065Z,18.87
2022-10-07T14:44:25.987Z,18.72
2022-10-07T14:49:27.911Z,18.73
2022-10-07T14:54:30.891Z,18.74
2022-10-07T14:59:32.399Z,18.75
2022-10-07T15:04:36.529Z,18.81
2022-10-07T15:09:38.097Z,18.92
2022-10-07T15:14:39.669Z,18.95
2022-10-07T15:19:41.323Z,18.98
2022-10-07T15:24:42.836Z,18.98
2022-10-07T15:29:44.644Z,18.95
2022-10-07T15:34:46.354Z,18.97
2022-10-07T15:39:48.376Z,18.96
2022-10-07T15:44:51.135Z,18.79
2022-10-07T15:49:52.653Z,18.65
2022-10-07T15:54:54.317Z,18.43
2022-10-07T15:59:55.911Z,18.24
2022-10-07T16:04:57.448Z,18.11
2022-10-07T16:09:58.981Z,17.92
2022-10-07T16:15:02.848Z,17.73
2022-10-07T16:20:11.229Z,17.50
2022-10-07T16:25:14.574Z,17.17
2022-10-07T16:30:34.694Z,16.92
2022-10-07T16:35:36.233Z,16.60
2022-10-07T16:40:51.360Z,16.28
2022-10-07T16:45:52.877Z,16.01
2022-10-07T16:50:55.462Z,15.72
2022-10-07T16:56:01.154Z,15.38
2022-10-07T17:01:04.328Z,15.06
2022-10-07T17:06:12.904Z,14.83
2022-10-07T17:11:30.360Z,14.65
2022-10-07T17:16:36.578Z,14.39
2022-10-07T17:21:40.068Z,14.19
2022-10-07T17:26:41.639Z,14.00
2022-10-07T17:31:44.279Z,13.76
2022-10-07T17:36:48.954Z,13.59
2022-10-07T17:41:52.619Z,13.44
2022-10-07T17:46:56.695Z,13.29
2022-10-07T17:51:58.367Z,13.05
2022-10-07T17:57:05.675Z,12.86
2022-10-07T18:02:08.518Z,12.75
2022-10-07T18:07:10.432Z,12.67
2022-10-07T18:12:30.664Z,12.66
2022-10-07T18:17:32.216Z,12.64
2022-10-07T18:22:34.764Z,12.49
2022-10-07T18:27:36.309Z,12.37
2022-10-07T18:32:37.936Z,12.34
2022-10-07T18:37:41.645Z,12.35
2022-10-07T18:42:43.297Z,12.36
2022-10-07T18:47:45.019Z,12.39
2022-10-07T18:52:46.795Z,12.33
2022-10-07T18:57:48.719Z,12.30
2022-10-07T19:02:51.223Z,12.34
2022-10-07T19:07:52.727Z,12.40
2022-10-07T19:13:20.639Z,12.48
2022-10-07T19:18:25.353Z,12.55
2022-10-07T19:23:27.887Z,12.45
2022-10-07T19:28:34.632Z,12.28
2022-10-07T19:33:36.164Z,12.24
2022-10-07T19:38:42.199Z,12.32
2022-10-07T19:43:45.061Z,12.30
2022-10-07T19:48:46.956Z,12.30
2022-10-07T19:53:55.378Z,12.31
2022-10-07T19:59:13.260Z,12.29
2022-10-07T20:04:18.878Z,12.38
2022-10-07T20:09:20.662Z,12.35
2022-10-07T20:14:22.198Z,12.34
2022-10-07T20:19:25.859Z,12.39
2022-10-07T20:24:38.696Z,12.47
2022-10-07T20:29:57.022Z,12.60
2022-10-07T20:34:58.775Z,12.70
2022-10-07T20:40:30.419Z,12.73
2022-10-07T20:45:57.669Z,12.76
2022-10-07T20:51:08.297Z,12.81
2022-10-07T20:56:09.915Z,12.86
2022-10-07T21:01:12.365Z,12.92
2022-10-07T21:06:18.959Z,12.76
2022-10-07T21:11:20.608Z,12.69
2022-10-07T21:16:24.164Z,12.73
2022-10-07T21:21:29.948Z,12.72
2022-10-07T21:26:31.460Z,12.67
2022-10-07T21:31:35.942Z,12.63
2022-10-07T21:36:41.118Z,12.63
2022-10-07T21:41:59.820Z,12.65
2022-10-07T21:47:01.478Z,12.64
2022-10-07T21:52:03.090Z,12.66
2022-10-07T21:57:18.750Z,12.72
2022-10-07T22:02:20.349Z,12.79
2022-10-07T22:07:55.194Z,12.80
2022-10-07T22:13:01.920Z,12.66
2022-10-07T22:18:04.280Z,12.48
2022-10-07T22:23:05.853Z,12.38
2022-10-07T22:28:07.430Z,12.31
2022-10-07T22:33:13.262Z,12.29
2022-10-07T22:38:17.778Z,12.26
2022-10-07T22:43:19.279Z,12.07
2022-10-07T22:48:20.794Z,12.03
2022-10-07T22:53:24.007Z,11.97
2022-10-07T22:58:25.509Z,11.91
2022-10-07T23:03:29.913Z,11.86
2022-10-07T23:08:37.241Z,11.83
2022-10-07T23:13:42.244Z,11.80
2022-10-07T23:18:59.957Z,11.75
2022-10-07T23:24:13.837Z,11.72
2022-10-07T23:29:17.761Z,11.68
2022-10-07T23:34:19.301Z,11.61
2022-10-07T23:39:22.219Z,11.61
2022-10-07T23:44:24.013Z,11.63
2022-10-07T23:49:26.133Z,11.67
2022-10-07T23:54:27.661Z,11.79
2022-10-07T23:59:35.798Z,11.82
